createdAt,value
2022-11-16T00:02:13.594Z,51.15
2022-11-16T00:04:42.134Z,52.48
2022-11-16T00:07:10.872Z,54.15
2022-11-16T00:09:39.193Z,52.95
2022-11-16T00:12:09.721Z,53.02
2022-11-16T00:14:37.796Z,46.92
2022-11-16T00:17:06.195Z,51.25
2022-11-16T00:19:34.256Z,48.45
2022-11-16T00:22:02.343Z,51.73
2022-11-16T00:24:30.487Z,50.45
2022-11-16T00:27:08.354Z,52.13
2022-11-16T00:29:39.758Z,50.23
2022-11-16T00:32:22.372Z,50.17
2022-11-16T00:34:55.489Z,47.27
2022-11-16T00:37:24.688Z,50.38
2022-11-16T00:39:54.952Z,53.02
2022-11-16T00:42:23.328Z,51.63
2022-11-16T01:02:42.488Z,51.18
2022-11-16T01:05:11.607Z,51.58
2022-11-16T01:07:41.203Z,50.92
2022-11-16T01:10:14.598Z,51.55
2022-11-16T01:12:46.361Z,51.92
2022-11-16T01:15:21.801Z,51.45
2022-11-16T01:17:50.187Z,51.10
2022-11-16T01:20:22.374Z,47.93
2022-11-16T01:22:51.077Z,45.45
2022-11-16T01:25:22.067Z,45.75
2022-11-16T01:27:50.185Z,43.65
2022-11-16T01:30:29.140Z,43.33
2022-11-16T01:33:01.796Z,43.58
2022-11-16T01:35:30.085Z,44.30
2022-11-16T01:37:58.194Z,42.65
2022-11-16T01:40:27.937Z,41.75
2022-11-16T01:42:55.619Z,40.20
2022-11-16T01:45:40.725Z,40.03
2022-11-16T01:48:21.335Z,39.25
2022-11-16T01:50:49.944Z,38.50
2022-11-16T01:53:18.183Z,37.85
2022-11-16T01:55:49.057Z,37.55
2022-11-16T01:58:22.775Z,38.00
2022-11-16T02:00:52.647Z,40.25
2022-11-16T02:03:26.166Z,39.03
2022-11-16T02:06:12.075Z,36.60
2022-11-16T02:09:30.049Z,36.23
2022-11-16T02:12:32.321Z,37.35
2022-11-16T02:15:30.035Z,37.73
2022-11-16T02:18:10.446Z,37.25
2022-11-16T02:20:55.658Z,38.40
2022-11-16T02:24:13.322Z,50.70
2022-11-16T02:26:46.569Z,62.20
2022-11-16T02:29:46.790Z,46.92
2022-11-16T02:32:31.651Z,41.13
2022-11-16T02:35:06.813Z,39.98
2022-11-16T02:37:39.720Z,40.98
2022-11-16T02:40:13.013Z,41.50
2022-11-16T02:42:54.592Z,40.12
2022-11-16T02:45:27.925Z,38.00
2022-11-16T02:48:01.358Z,37.15
2022-11-16T02:50:31.086Z,37.15
2022-11-16T02:52:58.980Z,40.70
2022-11-16T02:55:30.875Z,41.45
2022-11-16T02:58:09.776Z,41.90
2022-11-16T03:01:01.298Z,40.48
2022-11-16T03:03:53.000Z,39.23
2022-11-16T03:06:31.455Z,39.27
2022-11-16T03:09:07.492Z,42.45
2022-11-16T03:11:53.139Z,40.73
2022-11-16T03:14:24.454Z,44.88
2022-11-16T03:16:56.957Z,45.88
2022-11-16T03:19:51.147Z,44.50
2022-11-16T03:22:25.396Z,45.75
2022-11-16T03:24:54.311Z,45.05
2022-11-16T03:27:46.349Z,46.40
2022-11-16T03:30:24.332Z,47.43
2022-11-16T03:33:23.743Z,47.03
2022-11-16T03:36:09.484Z,47.67
2022-11-16T03:38:40.813Z,46.70
2022-11-16T03:41:11.214Z,44.33
2022-11-16T03:43:42.383Z,46.33
2022-11-16T03:46:12.591Z,47.00
2022-11-16T03:48:48.929Z,49.25
2022-11-16T03:51:28.028Z,47.27
2022-11-16T03:54:05.362Z,45.48
2022-11-16T03:57:05.285Z,44.10
2022-11-16T03:59:41.077Z,45.08
2022-11-16T04:02:19.896Z,46.55
2022-11-16T04:05:20.504Z,44.08
2022-11-16T04:08:45.731Z,45.12
2022-11-16T04:11:39.748Z,45.12
2022-11-16T04:14:35.389Z,43.63
2022-11-16T04:17:22.308Z,41.88
2022-11-16T04:20:12.401Z,45.03
2022-11-16T04:23:04.938Z,47.15
2022-11-16T04:25:40.725Z,53.33
2022-11-16T04:28:15.374Z,52.15
2022-11-16T04:31:11.364Z,47.20
2022-11-16T04:34:03.526Z,47.75
2022-11-16T04:36:59.419Z,47.00
2022-11-16T04:39:36.330Z,47.13
2022-11-16T04:42:18.968Z,46.25
2022-11-16T04:45:16.532Z,47.62
2022-11-16T04:47:52.629Z,48.52
2022-11-16T04:50:29.623Z,49.15
2022-11-16T04:53:01.616Z,52.25
2022-11-16T04:55:33.615Z,66.77
2022-11-16T04:58:01.934Z,58.20
2022-11-16T05:00:30.890Z,52.85
2022-11-16T05:03:01.564Z,49.85
2022-11-16T05:05:30.506Z,50.25
2022-11-16T05:08:14.930Z,49.93
2022-11-16T05:10:46.480Z,53.68
2022-11-16T05:17:30.154Z,55.43
2022-11-16T05:20:17.710Z,59.30
2022-11-16T05:22:56.175Z,57.17
2022-11-16T05:25:28.542Z,64.12
2022-11-16T05:27:57.771Z,67.05
2022-11-16T05:30:25.922Z,65.75
2022-11-16T05:32:54.838Z,64.85
2022-11-16T05:35:23.907Z,61.08
2022-11-16T05:37:55.497Z,60.75
2022-11-16T05:40:25.518Z,56.00
2022-11-16T05:42:57.794Z,60.45
2022-11-16T05:45:35.975Z,59.35
2022-11-16T05:48:08.334Z,58.52
2022-11-16T05:51:15.126Z,52.73
2022-11-16T05:54:02.281Z,52.70
2022-11-16T05:56:33.137Z,54.70
2022-11-16T05:59:01.333Z,53.42
2022-11-16T06:01:29.421Z,53.13
2022-11-16T06:04:00.175Z,51.80
2022-11-16T06:06:47.417Z,53.00
2022-11-16T06:09:32.897Z,55.20
2022-11-16T06:15:26.957Z,63.35
2022-11-16T06:17:55.670Z,68.28
2022-11-16T06:20:23.960Z,57.17
2022-11-16T06:22:52.762Z,51.05
2022-11-16T06:25:21.205Z,50.08
2022-11-16T06:27:54.813Z,49.27
2022-11-16T06:30:28.992Z,52.33
2022-11-16T06:32:56.954Z,46.50
2022-11-16T06:35:24.809Z,46.30
2022-11-16T06:38:34.976Z,42.98
2022-11-16T06:44:21.364Z,48.70
2022-11-16T06:47:02.579Z,46.50
2022-11-16T06:49:34.065Z,44.53
2022-11-16T06:55:26.506Z,61.77
2022-11-16T06:57:56.819Z,48.05
2022-11-16T07:00:39.191Z,39.83
2022-11-16T07:16:37.660Z,42.50
2022-11-16T08:02:36.941Z,33.38
2022-11-16T08:08:55.122Z,26.45
2022-11-16T08:44:18.011Z,23.67
2022-11-16T08:46:47.736Z,25.02
2022-11-16T08:49:49.689Z,22.75
2022-11-16T08:52:18.678Z,23.57
2022-11-16T08:54:51.639Z,25.40
2022-11-16T08:57:19.839Z,28.00
2022-11-16T09:02:24.786Z,26.48
2022-11-16T09:05:01.290Z,24.23
2022-11-16T09:17:30.667Z,24.05
2022-11-16T09:20:00.406Z,24.75
2022-11-16T09:22:28.252Z,29.57
2022-11-16T09:24:56.327Z,27.37
2022-11-16T09:27:28.240Z,28.60
2022-11-16T09:29:59.445Z,29.12
2022-11-16T09:32:28.878Z,32.90
2022-11-16T09:34:56.266Z,28.47
2022-11-16T09:37:38.680Z,28.32
2022-11-16T09:40:14.742Z,26.52
2022-11-16T09:58:10.627Z,20.00
2022-11-16T10:11:29.720Z,22.45
2022-11-16T10:18:03.558Z,24.18
2022-11-16T10:21:19.027Z,23.45
2022-11-16T10:24:18.032Z,21.95
2022-11-16T10:27:16.623Z,20.57
2022-11-16T10:30:08.582Z,27.48
2022-11-16T10:32:44.660Z,20.25
2022-11-16T10:35:43.517Z,18.70
2022-11-16T10:38:30.491Z,20.20
2022-11-16T10:44:44.644Z,21.33
2022-11-16T10:47:54.008Z,20.45
2022-11-16T10:55:04.474Z,21.95
2022-11-16T10:58:03.353Z,22.87
2022-11-16T11:00:51.301Z,24.50
2022-11-16T11:03:34.431Z,24.20
2022-11-16T11:06:04.517Z,24.20
2022-11-16T11:08:35.250Z,25.57
2022-11-16T11:11:25.689Z,23.50
2022-11-16T11:14:11.261Z,25.80
2022-11-16T11:16:41.190Z,25.45
2022-11-16T11:19:27.429Z,28.07
2022-11-16T11:21:59.959Z,28.00
2022-11-16T11:24:43.836Z,28.05
2022-11-16T11:27:00.061Z,27.65
2022-11-16T11:29:38.746Z,26.75
2022-11-16T11:32:11.955Z,25.77
2022-11-16T11:34:43.910Z,29.40
2022-11-16T11:37:19.874Z,28.20
2022-11-16T11:39:47.616Z,27.13
2022-11-16T11:42:20.737Z,25.27
2022-11-16T11:44:58.407Z,25.23
2022-11-16T11:48:00.700Z,24.60
2022-11-16T11:50:55.584Z,23.85
2022-11-16T11:53:34.823Z,24.23
2022-11-16T11:56:03.186Z,27.70
2022-11-16T11:58:35.226Z,30.75
2022-11-16T12:01:28.639Z,30.50
2022-11-16T12:04:10.566Z,29.95
2022-11-16T12:07:17.096Z,41.15
2022-11-16T12:10:19.490Z,44.95
2022-11-16T12:13:13.842Z,41.58
2022-11-16T12:16:20.665Z,35.50
2022-11-16T12:19:35.244Z,32.65
2022-11-16T12:22:41.792Z,31.37
2022-11-16T12:28:04.243Z,23.67
2022-11-16T12:30:40.206Z,25.68
2022-11-16T12:33:25.609Z,25.97
2022-11-16T12:36:11.189Z,29.37
2022-11-16T12:38:47.238Z,27.73
2022-11-16T12:41:39.035Z,30.15
2022-11-16T12:44:15.100Z,28.12
2022-11-16T12:47:00.759Z,35.63
2022-11-16T12:50:00.219Z,30.02
2022-11-16T12:52:45.996Z,34.15
2022-11-16T12:58:24.629Z,29.25
2022-11-16T13:01:30.091Z,26.77
2022-11-16T13:08:05.435Z,29.50
2022-11-16T14:57:22.075Z,38.53
2022-11-16T15:00:08.758Z,42.83
2022-11-16T15:03:02.070Z,49.18
2022-11-16T15:05:33.848Z,50.15
2022-11-16T15:08:16.233Z,51.30
2022-11-16T15:10:51.018Z,45.73
2022-11-16T15:13:25.611Z,47.48
2022-11-16T15:16:19.980Z,49.60
2022-11-16T15:18:59.996Z,53.02
2022-11-16T15:21:34.382Z,52.85
2022-11-16T15:24:28.725Z,52.83
2022-11-16T15:26:34.886Z,60.85
2022-11-16T15:29:02.799Z,55.60
2022-11-16T15:31:30.705Z,53.05
2022-11-16T15:34:01.680Z,51.88
2022-11-16T15:36:41.045Z,55.28
2022-11-16T15:39:19.670Z,62.35
2022-11-16T15:41:48.132Z,64.20
2022-11-16T15:44:23.298Z,65.78
2022-11-16T15:46:54.787Z,53.70
2022-11-16T15:49:36.028Z,51.75
2022-11-16T15:52:06.424Z,50.35
2022-11-16T15:54:54.590Z,62.48
2022-11-16T15:57:24.541Z,73.40
2022-11-16T15:59:55.488Z,96.08
2022-11-16T16:02:27.956Z,101.90
2022-11-16T16:04:57.795Z,97.60
2022-11-16T16:07:40.022Z,90.20
2022-11-16T16:10:24.223Z,91.08
2022-11-16T16:13:01.270Z,83.35
2022-11-16T16:15:39.721Z,84.37
2022-11-16T16:18:17.641Z,77.90
2022-11-16T16:20:52.879Z,78.83
2022-11-16T16:23:26.896Z,72.17
2022-11-16T16:25:54.732Z,71.35
2022-11-16T16:28:22.597Z,70.22
2022-11-16T16:30:53.675Z,78.33
2022-11-16T16:33:22.677Z,101.87
2022-11-16T16:35:50.519Z,86.97
2022-11-16T16:38:18.310Z,82.62
2022-11-16T16:40:46.449Z,83.10
2022-11-16T16:43:14.425Z,105.27
2022-11-16T16:45:47.385Z,81.72
2022-11-16T16:48:15.441Z,70.60
2022-11-16T16:50:43.305Z,70.92
2022-11-16T16:53:13.138Z,75.25
2022-11-16T16:55:43.654Z,70.92
2022-11-16T16:58:14.421Z,67.50
2022-11-16T17:00:43.141Z,62.45
2022-11-16T17:03:11.074Z,62.38
2022-11-16T17:05:39.344Z,60.73
2022-11-16T17:08:07.158Z,55.98
2022-11-16T17:10:37.293Z,51.28
2022-11-16T17:13:05.620Z,49.23
2022-11-16T17:15:33.367Z,44.70
2022-11-16T17:18:03.077Z,48.23
2022-11-16T17:20:31.291Z,47.23
2022-11-16T17:22:59.175Z,44.67
2022-11-16T17:25:27.439Z,44.65
2022-11-16T17:27:55.274Z,44.67
2022-11-16T17:30:23.253Z,43.40
2022-11-16T17:32:51.703Z,44.00
2022-11-16T17:35:22.853Z,45.73
2022-11-16T17:37:54.829Z,44.48
2022-11-16T17:40:27.572Z,45.28
2022-11-16T17:42:54.985Z,46.98
2022-11-16T17:45:23.005Z,48.73
2022-11-16T17:47:51.043Z,51.55
2022-11-16T17:50:19.109Z,50.43
2022-11-16T17:52:46.774Z,51.90
2022-11-16T17:55:17.847Z,49.30
2022-11-16T17:57:55.433Z,43.63
2022-11-16T18:00:34.962Z,43.60
2022-11-16T18:03:10.088Z,43.28
2022-11-16T18:05:41.108Z,41.53
2022-11-16T18:08:18.391Z,50.30
2022-11-16T18:10:47.978Z,54.05
2022-11-16T18:13:15.813Z,65.03
2022-11-16T18:15:43.570Z,51.48
2022-11-16T18:18:11.271Z,45.05
2022-11-16T18:20:39.294Z,43.95
2022-11-16T18:23:07.626Z,45.67
2022-11-16T18:25:36.596Z,45.52
2022-11-16T18:28:09.864Z,49.18
2022-11-16T18:30:42.851Z,47.65
2022-11-16T18:33:12.556Z,48.00
2022-11-16T18:35:44.782Z,49.73
2022-11-16T18:38:12.718Z,51.10
2022-11-16T18:40:45.792Z,48.10
2022-11-16T18:43:16.523Z,47.23
2022-11-16T18:45:44.237Z,45.33
2022-11-16T18:48:16.191Z,46.48
2022-11-16T18:50:44.058Z,47.15
2022-11-16T18:53:11.916Z,48.40
2022-11-16T18:55:40.577Z,50.60
2022-11-16T18:58:22.799Z,56.73
2022-11-16T19:01:09.158Z,49.58
2022-11-16T19:03:40.964Z,50.30
2022-11-16T19:09:45.514Z,46.40
2022-11-16T19:12:20.553Z,47.43
2022-11-16T19:18:21.010Z,47.03
2022-11-16T19:20:52.403Z,44.60
2022-11-16T19:23:25.529Z,39.53
2022-11-16T19:26:04.760Z,37.90
2022-11-16T19:28:43.453Z,37.40
2022-11-16T19:38:54.656Z,40.48
2022-11-16T19:41:28.557Z,41.58
2022-11-16T19:44:10.146Z,43.13
2022-11-16T19:46:38.386Z,41.73
2022-11-16T19:49:11.270Z,39.85
2022-11-16T19:51:42.552Z,40.40
2022-11-16T19:54:13.642Z,39.75
2022-11-16T19:56:55.021Z,35.50
2022-11-16T19:59:24.424Z,34.30
2022-11-16T20:01:52.624Z,34.33
2022-11-16T20:04:31.929Z,34.40
2022-11-16T20:07:10.653Z,39.83
2022-11-16T20:09:53.599Z,41.85
2022-11-16T20:12:27.211Z,37.50
2022-11-16T20:15:00.945Z,39.18
2022-11-16T20:17:40.306Z,42.85
2022-11-16T20:20:10.053Z,39.98
2022-11-16T20:22:41.109Z,40.20
2022-11-16T20:25:12.330Z,38.53
2022-11-16T20:27:46.472Z,39.15
2022-11-16T20:30:22.885Z,41.23
2022-11-16T20:32:55.536Z,40.57
2022-11-16T20:35:28.983Z,42.30
2022-11-16T20:38:07.328Z,40.25
2022-11-16T20:40:35.685Z,41.40
2022-11-16T20:43:03.880Z,40.43
2022-11-16T20:45:35.972Z,41.55
2022-11-16T20:48:04.925Z,40.35
2022-11-16T20:50:35.357Z,37.05
2022-11-16T20:53:04.890Z,37.90
2022-11-16T20:55:36.730Z,36.53
2022-11-16T20:58:09.521Z,35.05
2022-11-16T21:00:37.831Z,33.85
2022-11-16T21:03:06.311Z,36.38
2022-11-16T21:05:34.526Z,31.65
2022-11-16T21:08:04.104Z,31.30
2022-11-16T21:10:34.297Z,32.65
2022-11-16T21:13:20.686Z,33.65
2022-11-16T21:16:00.951Z,33.10
2022-11-16T21:18:30.983Z,33.18
2022-11-16T21:21:04.673Z,31.40
2022-11-16T21:23:35.475Z,30.43
2022-11-16T21:26:07.794Z,28.32
2022-11-16T21:28:45.744Z,24.32
2022-11-16T21:31:24.089Z,24.52
2022-11-16T21:34:00.342Z,25.77
2022-11-16T21:36:32.317Z,24.85
2022-11-16T21:39:00.876Z,21.60
2022-11-16T21:41:28.972Z,22.98
2022-11-16T21:43:57.715Z,21.68
2022-11-16T21:46:26.992Z,23.32
2022-11-16T21:48:58.743Z,24.20
2022-11-16T21:51:27.734Z,26.42
2022-11-16T21:53:55.973Z,25.65
2022-11-16T21:56:27.444Z,28.75
2022-11-16T21:58:55.611Z,30.57
2022-11-16T22:01:27.490Z,33.28
2022-11-16T22:04:14.078Z,33.15
2022-11-16T22:07:01.020Z,32.20
2022-11-16T22:09:29.651Z,31.12
2022-11-16T22:12:05.250Z,32.85
2022-11-16T22:14:32.085Z,32.75
2022-11-16T22:17:01.651Z,33.10
2022-11-16T22:19:31.556Z,31.02
2022-11-16T22:22:01.481Z,31.23
2022-11-16T22:24:29.596Z,31.40
2022-11-16T22:26:58.199Z,30.70
2022-11-16T22:29:26.206Z,31.55
2022-11-16T22:31:54.272Z,32.33
2022-11-16T22:34:22.294Z,32.35
2022-11-16T22:36:50.370Z,32.60
2022-11-16T22:39:18.512Z,32.70
2022-11-16T22:41:46.645Z,32.03
2022-11-16T22:44:14.541Z,32.70
2022-11-16T22:46:42.646Z,31.85
2022-11-16T22:49:10.804Z,32.42
2022-11-16T22:51:39.171Z,32.42
2022-11-16T22:54:14.661Z,33.38
2022-11-16T22:56:50.918Z,29.75
2022-11-16T22:59:19.361Z,29.87
2022-11-16T23:01:47.760Z,28.12
2022-11-16T23:04:15.995Z,32.38
2022-11-16T23:06:46.128Z,31.30
2022-11-16T23:09:24.910Z,33.30
2022-11-16T23:12:11.735Z,32.48
2022-11-16T23:14:58.739Z,32.63
2022-11-16T23:17:30.034Z,31.93
2022-11-16T23:20:17.939Z,32.45
2022-11-16T23:23:07.535Z,32.20
2022-11-16T23:25:54.242Z,31.70
2022-11-16T23:28:22.470Z,31.25
2022-11-16T23:30:50.753Z,30.23
2022-11-16T23:33:20.507Z,31.02
2022-11-16T23:35:48.498Z,30.23
2022-11-16T23:38:16.483Z,27.90
2022-11-16T23:40:44.380Z,28.55
2022-11-16T23:43:30.895Z,28.40
2022-11-16T23:46:01.055Z,26.50
2022-11-16T23:48:29.021Z,26.50
2022-11-16T23:50:57.722Z,24.05
2022-11-16T23:53:27.287Z,24.80
2022-11-16T23:56:05.558Z,23.98
2022-11-16T23:58:30.601Z,23.18
